Time;durP1;ratioP1;P1;durP2;ratioP2;P2;SDS_P1;SDS_P2;PMS_P1;PMS_P2;Temp;Humidity;BMP_temperature;BMP_pressure;BME280_temperature;BME280_humidity;BME280_pressure;Samples;Min_cycle;Max_cycle;Signal;HPM_P1;HPM_P2
2022/12/30 00:01:21;;;;;;;0.10;0.10;;;;;;;;;;5114568;28;20030;-57
2022/12/30 00:03:48;;;;;;;0.30;0.13;;;;;;;;;;5114733;28;20027;-57
2022/12/30 00:06:16;;;;;;;1.55;0.90;;;;;;;;;;5115702;28;20131;-57
2022/12/30 00:08:46;;;;;;;0.25;0.10;;;;;;;;;;5121623;28;20034;-56
2022/12/30 00:11:13;;;;;;;0.30;0.17;;;;;;;;;;5120978;28;20028;-56
2022/12/30 00:33:47;;;;;;;0.80;0.40;;;;;;;;;;5120806;28;20042;-56
2022/12/30 00:36:13;;;;;;;0.68;0.30;;;;;;;;;;5121255;28;20039;-57
2022/12/30 00:38:39;;;;;;;0.73;0.30;;;;;;;;;;5120429;28;20028;-57
2022/12/30 00:43:49;;;;;;;0.75;0.40;;;;;;;;;;5120796;28;20038;-55
2022/12/30 00:46:15;;;;;;;0.30;0.20;;;;;;;;;;5121020;28;20102;-56
2022/12/30 00:56:55;;;;;;;0.50;0.30;;;;;;;;;;5120572;28;20034;-57
2022/12/30 00:59:21;;;;;;;1.42;0.30;;;;;;;;;;5120547;28;20373;-57
2022/12/30 01:01:47;;;;;;;0.60;0.38;;;;;;;;;;5120795;28;20071;-55
2022/12/30 01:04:13;;;;;;;0.75;0.38;;;;;;;;;;5120201;28;20027;-57
2022/12/30 01:06:39;;;;;;;0.77;0.38;;;;;;;;;;5120781;28;20030;-57
2022/12/30 01:09:05;;;;;;;1.33;0.25;;;;;;;;;;5120458;28;20023;-56
2022/12/30 01:11:31;;;;;;;1.42;0.60;;;;;;;;;;5120691;28;20028;-57
2022/12/30 01:13:56;;;;;;;0.55;0.32;;;;;;;;;;5120283;28;20035;-55
2022/12/30 01:16:22;;;;;;;0.45;0.30;;;;;;;;;;5120065;28;20030;-57
2022/12/30 01:18:49;;;;;;;0.43;0.15;;;;;;;;;;5117309;28;20031;-57
2022/12/30 01:21:15;;;;;;;0.57;0.22;;;;;;;;;;5117097;28;20031;-57
2022/12/30 01:23:41;;;;;;;2.08;0.47;;;;;;;;;;5117071;28;20032;-54
2022/12/30 01:26:07;;;;;;;0.38;0.20;;;;;;;;;;5117880;28;20023;-57
2022/12/30 01:28:35;;;;;;;0.70;0.30;;;;;;;;;;5117037;28;20089;-54
2022/12/30 01:31:04;;;;;;;0.80;0.28;;;;;;;;;;5116981;28;20077;-57
2022/12/30 01:33:30;;;;;;;0.55;0.30;;;;;;;;;;5116791;28;20028;-57
2022/12/30 01:35:55;;;;;;;0.90;0.20;;;;;;;;;;5116908;28;20050;-54
2022/12/30 01:38:21;;;;;;;0.13;0.13;;;;;;;;;;5116534;28;20027;-55
2022/12/30 01:40:47;;;;;;;0.68;0.35;;;;;;;;;;5116798;28;20127;-57
2022/12/30 01:43:14;;;;;;;0.20;0.13;;;;;;;;;;5117245;28;20035;-56
2022/12/30 01:45:42;;;;;;;0.35;0.20;;;;;;;;;;5117500;28;20102;-57
2022/12/30 01:48:16;;;;;;;0.50;0.38;;;;;;;;;;5117118;28;20110;-56
2022/12/30 01:50:54;;;;;;;0.45;0.30;;;;;;;;;;5116661;28;20065;-57
2022/12/30 01:53:21;;;;;;;0.13;0.10;;;;;;;;;;5116698;28;20032;-56
2022/12/30 01:55:55;;;;;;;0.55;0.28;;;;;;;;;;5116460;28;20516;-57
2022/12/30 01:58:26;;;;;;;0.52;0.38;;;;;;;;;;5116084;28;20397;-57
2022/12/30 02:00:52;;;;;;;0.50;0.50;;;;;;;;;;5116732;28;20020;-56
2022/12/30 02:03:18;;;;;;;0.20;0.10;;;;;;;;;;5116412;28;20062;-56
2022/12/30 02:05:45;;;;;;;0.25;0.10;;;;;;;;;;5116678;28;20108;-55
2022/12/30 02:08:12;;;;;;;0.47;0.35;;;;;;;;;;5116246;28;20111;-56
2022/12/30 02:10:39;;;;;;;1.35;0.90;;;;;;;;;;5115950;28;20384;-57
2022/12/30 02:13:05;;;;;;;0.17;0.17;;;;;;;;;;5116625;28;20075;-56
2022/12/30 02:15:36;;;;;;;0.32;0.20;;;;;;;;;;5116448;28;20023;-55
2022/12/30 02:18:12;;;;;;;0.13;0.10;;;;;;;;;;5116376;28;20034;-56
2022/12/30 02:20:57;;;;;;;1.30;0.35;;;;;;;;;;5116549;28;20088;-57
2022/12/30 02:23:42;;;;;;;0.73;0.20;;;;;;;;;;5115977;28;20036;-57
2022/12/30 02:26:11;;;;;;;0.30;0.22;;;;;;;;;;5116223;28;20027;-56
2022/12/30 02:28:49;;;;;;;1.15;0.60;;;;;;;;;;5115806;28;20454;-55
2022/12/30 02:31:34;;;;;;;0.10;0.10;;;;;;;;;;5116169;28;20115;-57
2022/12/30 02:34:02;;;;;;;1.38;0.30;;;;;;;;;;5116272;28;20031;-56
2022/12/30 02:36:47;;;;;;;0.32;0.13;;;;;;;;;;5115713;28;20073;-56
2022/12/30 02:39:16;;;;;;;0.38;0.20;;;;;;;;;;5116170;28;20034;-55
2022/12/30 02:44:37;;;;;;;0.65;0.38;;;;;;;;;;5115919;28;20524;-55
2022/12/30 02:47:19;;;;;;;0.20;0.15;;;;;;;;;;5116022;28;20068;-56
2022/12/30 02:52:14;;;;;;;0.10;0.10;;;;;;;;;;5115418;28;20076;-56
2022/12/30 02:52:32;;;;;;;0.90;0.40;;;;;;;;;;5115115;28;20059;-57
2022/12/30 02:54:58;;;;;;;0.38;0.20;;;;;;;;;;5115281;28;20068;-57
2022/12/30 02:57:27;;;;;;;0.32;0.25;;;;;;;;;;5114911;28;20064;-56
2022/12/30 03:05:38;;;;;;;0.10;0.10;;;;;;;;;;5114995;28;20026;-57
2022/12/30 03:08:22;;;;;;;0.68;0.38;;;;;;;;;;5115367;28;20038;-55
2022/12/30 03:11:13;;;;;;;0.30;0.20;;;;;;;;;;5115000;28;20024;-57
2022/12/30 03:13:45;;;;;;;0.43;0.20;;;;;;;;;;5115417;28;20449;-56
2022/12/30 03:16:29;;;;;;;0.40;0.30;;;;;;;;;;5116013;28;20035;-55
2022/12/30 03:18:57;;;;;;;0.20;0.13;;;;;;;;;;5114849;28;20036;-55
2022/12/30 03:21:24;;;;;;;0.63;0.30;;;;;;;;;;5114810;28;20084;-52
2022/12/30 03:29:24;;;;;;;0.10;0.10;;;;;;;;;;5115086;28;20047;-57
2022/12/30 03:31:50;;;;;;;0.40;0.30;;;;;;;;;;5114675;28;20023;-57
2022/12/30 03:34:16;;;;;;;0.25;0.20;;;;;;;;;;5115390;28;20185;-55
2022/12/30 03:36:47;;;;;;;0.50;0.30;;;;;;;;;;5114545;28;20031;-57
2022/12/30 03:39:26;;;;;;;0.40;0.20;;;;;;;;;;5114564;28;20020;-56
2022/12/30 03:41:52;;;;;;;2.00;0.28;;;;;;;;;;5113678;28;20024;-57
2022/12/30 03:44:19;;;;;;;1.08;0.38;;;;;;;;;;5115365;28;20052;-57
2022/12/30 03:46:46;;;;;;;0.20;0.20;;;;;;;;;;5114364;28;20024;-57
2022/12/30 03:49:12;;;;;;;0.75;0.57;;;;;;;;;;5114417;28;20023;-55
2022/12/30 03:51:38;;;;;;;0.20;0.10;;;;;;;;;;5114885;28;20024;-56
2022/12/30 03:54:04;;;;;;;0.85;0.28;;;;;;;;;;5114688;28;20088;-56
2022/12/30 03:56:30;;;;;;;0.73;0.47;;;;;;;;;;5114287;28;20031;-56
2022/12/30 03:58:56;;;;;;;0.20;0.20;;;;;;;;;;5114590;28;20027;-55
2022/12/30 04:01:22;;;;;;;0.45;0.20;;;;;;;;;;5114062;28;20563;-55
2022/12/30 04:03:48;;;;;;;0.40;0.25;;;;;;;;;;5114806;28;20085;-57
2022/12/30 04:06:14;;;;;;;0.15;0.13;;;;;;;;;;5114221;28;20412;-54
2022/12/30 04:08:40;;;;;;;0.88;0.50;;;;;;;;;;5114507;28;20395;-57
2022/12/30 04:11:05;;;;;;;0.00;0.00;;;;;;;;;;5114232;28;20434;-54
2022/12/30 04:13:31;;;;;;;0.47;0.20;;;;;;;;;;5114109;28;20035;-52
2022/12/30 04:15:57;;;;;;;5.68;0.32;;;;;;;;;;5114500;28;20024;-56
2022/12/30 04:18:23;;;;;;;0.85;0.40;;;;;;;;;;5114152;28;20035;-53
2022/12/30 04:20:50;;;;;;;0.95;0.40;;;;;;;;;;5114349;28;20019;-52
2022/12/30 04:23:16;;;;;;;0.13;0.13;;;;;;;;;;5114578;28;20096;-53
2022/12/30 04:25:42;;;;;;;4.32;0.50;;;;;;;;;;5114618;28;20080;-53
2022/12/30 04:28:08;;;;;;;0.10;0.08;;;;;;;;;;5114078;28;20107;-53
2022/12/30 04:30:34;;;;;;;0.13;0.10;;;;;;;;;;5114576;28;20020;-54
2022/12/30 04:33:01;;;;;;;0.55;0.30;;;;;;;;;;5113982;28;20116;-53
2022/12/30 04:35:27;;;;;;;0.35;0.20;;;;;;;;;;5114489;28;20034;-51
2022/12/30 04:37:53;;;;;;;1.35;0.55;;;;;;;;;;5114295;28;20027;-51
2022/12/30 04:40:19;;;;;;;0.28;0.17;;;;;;;;;;5113991;28;20020;-53
2022/12/30 04:42:45;;;;;;;0.10;0.03;;;;;;;;;;5113968;28;20034;-50
2022/12/30 04:45:11;;;;;;;0.52;0.35;;;;;;;;;;5114453;28;20023;-51
2022/12/30 04:47:37;;;;;;;0.35;0.17;;;;;;;;;;5114461;28;20050;-50
2022/12/30 04:50:03;;;;;;;0.85;0.52;;;;;;;;;;5113821;28;20088;-51
2022/12/30 04:52:29;;;;;;;0.35;0.20;;;;;;;;;;5114548;28;20035;-54
2022/12/30 04:54:55;;;;;;;0.73;0.30;;;;;;;;;;5116876;28;20080;-53
2022/12/30 04:57:21;;;;;;;0.55;0.55;;;;;;;;;;5117673;28;20465;-51
2022/12/30 04:59:47;;;;;;;0.15;0.15;;;;;;;;;;5118158;28;20468;-52
2022/12/30 05:02:13;;;;;;;0.57;0.30;;;;;;;;;;5117365;28;20397;-54
2022/12/30 05:04:39;;;;;;;0.15;0.10;;;;;;;;;;5117575;28;20023;-53
2022/12/30 05:07:05;;;;;;;0.17;0.13;;;;;;;;;;5117514;28;20024;-51
2022/12/30 05:09:31;;;;;;;0.40;0.10;;;;;;;;;;5117783;28;20032;-50
2022/12/30 05:11:57;;;;;;;0.20;0.15;;;;;;;;;;5117648;28;20031;-52
2022/12/30 05:14:23;;;;;;;0.30;0.17;;;;;;;;;;5117754;28;20431;-55
2022/12/30 05:16:49;;;;;;;0.38;0.10;;;;;;;;;;5118232;28;20028;-52
2022/12/30 05:19:15;;;;;;;0.88;0.40;;;;;;;;;;5117809;28;20464;-51
2022/12/30 05:21:41;;;;;;;0.32;0.22;;;;;;;;;;5117813;28;20353;-52
2022/12/30 05:26:53;;;;;;;0.98;0.40;;;;;;;;;;5117541;28;20065;-54
2022/12/30 05:29:19;;;;;;;0.20;0.15;;;;;;;;;;5117121;28;20027;-55
2022/12/30 05:31:45;;;;;;;0.35;0.20;;;;;;;;;;5117333;28;20429;-50
2022/12/30 05:34:11;;;;;;;0.45;0.25;;;;;;;;;;5116692;28;20439;-53
2022/12/30 05:36:37;;;;;;;4.35;0.35;;;;;;;;;;5116927;28;20023;-53
2022/12/30 05:39:04;;;;;;;1.10;0.30;;;;;;;;;;5098891;28;20361;-56
2022/12/30 05:41:30;;;;;;;0.90;0.22;;;;;;;;;;5117426;28;20110;-54
2022/12/30 05:43:56;;;;;;;0.75;0.43;;;;;;;;;;5117457;28;20085;-53
2022/12/30 05:46:22;;;;;;;0.82;0.43;;;;;;;;;;5117092;28;20441;-52
2022/12/30 05:48:48;;;;;;;0.65;0.45;;;;;;;;;;5116755;28;20407;-52
2022/12/30 05:51:14;;;;;;;0.35;0.25;;;;;;;;;;5116722;28;20026;-55
2022/12/30 05:53:40;;;;;;;0.65;0.30;;;;;;;;;;5116516;28;20032;-54
2022/12/30 05:56:07;;;;;;;0.20;0.20;;;;;;;;;;5116706;28;20032;-50
2022/12/30 05:58:33;;;;;;;1.33;0.63;;;;;;;;;;5116385;28;20020;-51
2022/12/30 06:00:59;;;;;;;0.45;0.25;;;;;;;;;;5116426;28;20122;-54
2022/12/30 06:03:25;;;;;;;0.70;0.30;;;;;;;;;;5116270;28;20524;-55
2022/12/30 06:05:57;;;;;;;1.85;0.45;;;;;;;;;;5116468;28;20414;-56
2022/12/30 06:08:23;;;;;;;2.45;0.73;;;;;;;;;;5116472;28;20476;-53
2022/12/30 06:10:49;;;;;;;0.65;0.40;;;;;;;;;;5116235;28;20019;-54
2022/12/30 06:13:15;;;;;;;0.70;0.30;;;;;;;;;;5116214;28;20110;-54
2022/12/30 06:15:41;;;;;;;0.40;0.20;;;;;;;;;;5116540;28;20024;-52
2022/12/30 06:18:07;;;;;;;1.33;0.60;;;;;;;;;;5116650;28;20019;-56
2022/12/30 06:20:34;;;;;;;0.30;0.20;;;;;;;;;;5116642;28;20509;-57
2022/12/30 06:23:00;;;;;;;0.15;0.10;;;;;;;;;;5116559;28;20084;-55
2022/12/30 06:25:26;;;;;;;1.25;0.43;;;;;;;;;;5116815;28;20361;-55
2022/12/30 06:27:51;;;;;;;1.00;0.35;;;;;;;;;;5115929;28;20388;-56
2022/12/30 06:30:18;;;;;;;2.90;0.30;;;;;;;;;;5115908;28;20447;-56
2022/12/30 06:32:44;;;;;;;0.63;0.30;;;;;;;;;;5115375;28;20077;-56
2022/12/30 06:35:10;;;;;;;0.80;0.52;;;;;;;;;;5116413;28;20480;-54
2022/12/30 06:37:36;;;;;;;0.75;0.30;;;;;;;;;;5116020;28;20028;-56
2022/12/30 06:40:02;;;;;;;0.00;0.00;;;;;;;;;;5115971;28;20030;-56
2022/12/30 06:42:28;;;;;;;0.50;0.30;;;;;;;;;;5115924;28;20027;-55
2022/12/30 06:44:54;;;;;;;0.32;0.20;;;;;;;;;;5116164;28;20023;-55
2022/12/30 06:47:20;;;;;;;1.05;0.40;;;;;;;;;;5116301;28;20020;-56
2022/12/30 06:49:46;;;;;;;1.40;0.60;;;;;;;;;;5115191;28;20057;-56
2022/12/30 06:52:12;;;;;;;0.57;0.30;;;;;;;;;;5115320;28;20114;-54
2022/12/30 06:54:38;;;;;;;1.75;0.30;;;;;;;;;;5115383;28;20119;-55
2022/12/30 06:57:04;;;;;;;0.68;0.40;;;;;;;;;;5115586;28;20069;-55
2022/12/30 06:59:30;;;;;;;0.70;0.40;;;;;;;;;;5115217;28;20080;-56
2022/12/30 07:01:56;;;;;;;1.35;0.85;;;;;;;;;;5115496;28;20493;-56
2022/12/30 07:04:22;;;;;;;0.60;0.45;;;;;;;;;;5115202;28;20370;-52
2022/12/30 07:06:48;;;;;;;2.17;0.63;;;;;;;;;;5115466;28;20372;-56
2022/12/30 07:09:14;;;;;;;1.42;0.75;;;;;;;;;;5115365;28;20043;-56
2022/12/30 07:11:40;;;;;;;0.43;0.32;;;;;;;;;;5115041;28;20034;-54
2022/12/30 07:14:06;;;;;;;0.88;0.50;;;;;;;;;;5115748;28;20023;-56
2022/12/30 07:16:32;;;;;;;0.82;0.43;;;;;;;;;;5114478;28;20072;-56
2022/12/30 07:18:58;;;;;;;0.68;0.45;;;;;;;;;;5097514;28;20114;-56
2022/12/30 07:21:24;;;;;;;1.40;0.70;;;;;;;;;;5115143;28;20035;-56
2022/12/30 07:23:50;;;;;;;2.30;0.70;;;;;;;;;;5114747;28;20114;-57
2022/12/30 07:26:16;;;;;;;2.03;1.33;;;;;;;;;;5114829;28;20338;-56
2022/12/30 07:28:42;;;;;;;0.95;0.30;;;;;;;;;;5114956;28;20023;-56
2022/12/30 07:31:08;;;;;;;0.73;0.50;;;;;;;;;;5096973;28;20073;-54
2022/12/30 07:33:33;;;;;;;1.13;0.60;;;;;;;;;;5114677;28;20028;-54
2022/12/30 07:35:59;;;;;;;0.85;0.47;;;;;;;;;;5114785;28;20517;-54
2022/12/30 07:38:25;;;;;;;1.35;0.55;;;;;;;;;;5115227;28;20346;-54
2022/12/30 07:40:51;;;;;;;0.22;0.20;;;;;;;;;;5115016;28;20053;-56
2022/12/30 07:43:17;;;;;;;0.90;0.50;;;;;;;;;;5114469;28;20101;-58
2022/12/30 07:45:43;;;;;;;0.77;0.40;;;;;;;;;;5115367;28;20055;-58
2022/12/30 07:48:09;;;;;;;0.75;0.63;;;;;;;;;;5114494;28;20369;-58
2022/12/30 07:50:38;;;;;;;1.63;1.52;;;;;;;;;;5114456;28;20031;-56
2022/12/30 07:53:04;;;;;;;0.68;0.35;;;;;;;;;;5114409;28;20027;-57
2022/12/30 07:55:30;;;;;;;0.43;0.32;;;;;;;;;;5115274;28;20326;-57
2022/12/30 07:57:57;;;;;;;1.23;0.65;;;;;;;;;;5114307;28;20119;-56
2022/12/30 08:00:23;;;;;;;0.93;0.60;;;;;;;;;;5114115;28;20038;-58
2022/12/30 08:02:49;;;;;;;0.95;0.60;;;;;;;;;;5114547;28;20093;-58
2022/12/30 08:05:15;;;;;;;0.82;0.70;;;;;;;;;;5114657;28;20038;-58
2022/12/30 08:07:41;;;;;;;1.92;0.98;;;;;;;;;;5114721;28;20080;-57
2022/12/30 08:10:07;;;;;;;1.70;1.00;;;;;;;;;;5114255;28;20106;-55
2022/12/30 08:12:36;;;;;;;3.65;0.95;;;;;;;;;;5114176;28;20036;-56
2022/12/30 08:15:02;;;;;;;1.00;0.55;;;;;;;;;;5114509;28;20081;-58
2022/12/30 08:17:28;;;;;;;1.00;0.47;;;;;;;;;;5114046;28;20047;-57
2022/12/30 08:19:54;;;;;;;0.75;0.45;;;;;;;;;;5114403;28;20042;-58
2022/12/30 08:22:20;;;;;;;1.40;0.77;;;;;;;;;;5114116;28;20024;-57
2022/12/30 08:24:46;;;;;;;2.10;0.75;;;;;;;;;;5114599;28;20107;-57
2022/12/30 08:27:12;;;;;;;0.70;0.45;;;;;;;;;;5114224;28;20028;-56
2022/12/30 08:29:38;;;;;;;2.00;0.75;;;;;;;;;;5118076;28;20023;-58
2022/12/30 08:32:04;;;;;;;2.28;1.15;;;;;;;;;;5118215;28;20024;-58
2022/12/30 08:34:30;;;;;;;1.38;0.93;;;;;;;;;;5118114;28;20024;-58
2022/12/30 08:36:56;;;;;;;2.33;1.25;;;;;;;;;;5118128;28;20035;-56
2022/12/30 08:39:22;;;;;;;2.00;1.42;;;;;;;;;;5118040;28;20369;-56
2022/12/30 08:41:48;;;;;;;4.38;1.10;;;;;;;;;;5118013;28;20035;-54
2022/12/30 08:44:14;;;;;;;1.35;0.98;;;;;;;;;;5118284;28;20031;-53
2022/12/30 08:46:41;;;;;;;2.05;1.20;;;;;;;;;;5118448;28;20047;-55
2022/12/30 08:49:07;;;;;;;1.95;1.08;;;;;;;;;;5118007;28;20526;-54
2022/12/30 08:51:33;;;;;;;1.65;0.93;;;;;;;;;;5117703;28;20469;-51
2022/12/30 08:53:59;;;;;;;2.22;1.70;;;;;;;;;;5117701;28;20031;-55
2022/12/30 08:56:27;;;;;;;1.65;0.85;;;;;;;;;;5117907;28;20034;-55
2022/12/30 08:58:54;;;;;;;2.92;1.17;;;;;;;;;;5116567;28;20385;-56
2022/12/30 09:01:24;;;;;;;1.67;1.17;;;;;;;;;;5117327;28;20102;-56
2022/12/30 09:03:50;;;;;;;2.95;1.63;;;;;;;;;;5118319;28;20067;-54
2022/12/30 09:06:18;;;;;;;2.55;1.50;;;;;;;;;;5117393;28;20023;-55
2022/12/30 09:08:44;;;;;;;1.70;0.90;;;;;;;;;;5117382;28;20032;-55
2022/12/30 09:11:12;;;;;;;1.58;0.95;;;;;;;;;;5117681;28;20035;-54
2022/12/30 09:13:39;;;;;;;1.77;1.17;;;;;;;;;;5117184;28;20035;-61
2022/12/30 09:16:06;;;;;;;4.10;2.10;;;;;;;;;;5117318;28;20354;-56
2022/12/30 09:18:32;;;;;;;3.50;1.92;;;;;;;;;;5117310;28;20034;-57
2022/12/30 09:20:57;;;;;;;2.63;1.92;;;;;;;;;;5117940;28;20118;-54
2022/12/30 09:23:23;;;;;;;5.43;2.33;;;;;;;;;;5117059;28;20024;-58
2022/12/30 09:25:50;;;;;;;2.35;1.73;;;;;;;;;;5117501;28;20492;-57
2022/12/30 09:28:16;;;;;;;2.75;1.98;;;;;;;;;;5117096;28;20453;-56
2022/12/30 09:30:42;;;;;;;2.35;1.40;;;;;;;;;;5116965;28;20027;-56
2022/12/30 09:33:08;;;;;;;3.05;2.10;;;;;;;;;;5116882;28;20040;-55
2022/12/30 09:35:34;;;;;;;3.40;1.55;;;;;;;;;;5117446;28;20024;-54
2022/12/30 09:38:00;;;;;;;2.28;1.73;;;;;;;;;;5117044;28;20024;-55
2022/12/30 09:40:47;;;;;;;2.25;1.45;;;;;;;;;;5115831;28;20077;-57
2022/12/30 09:43:19;;;;;;;2.78;1.88;;;;;;;;;;5116859;28;20116;-56
2022/12/30 09:45:53;;;;;;;2.17;1.45;;;;;;;;;;5117127;28;20032;-57
2022/12/30 09:48:25;;;;;;;10.27;2.05;;;;;;;;;;5117288;28;20404;-58
2022/12/30 09:50:51;;;;;;;3.00;1.30;;;;;;;;;;5116629;28;20039;-57
2022/12/30 09:53:20;;;;;;;2.67;1.40;;;;;;;;;;5116554;28;20031;-58
2022/12/30 09:55:45;;;;;;;2.17;1.05;;;;;;;;;;5116862;28;20066;-56
2022/12/30 09:58:14;;;;;;;2.80;1.45;;;;;;;;;;5116441;28;20056;-56
2022/12/30 10:00:40;;;;;;;2.28;1.35;;;;;;;;;;5116409;28;20020;-58
2022/12/30 10:03:07;;;;;;;2.97;1.30;;;;;;;;;;5115957;28;20127;-58
2022/12/30 10:05:52;;;;;;;1.77;1.05;;;;;;;;;;5116683;28;20032;-58
2022/12/30 10:08:36;;;;;;;2.53;1.45;;;;;;;;;;5116775;28;20055;-57
2022/12/30 10:11:07;;;;;;;3.63;1.20;;;;;;;;;;5116822;28;20020;-58
2022/12/30 10:13:33;;;;;;;2.22;1.02;;;;;;;;;;5116679;28;20028;-58
2022/12/30 10:16:05;;;;;;;1.45;1.00;;;;;;;;;;5116483;28;20399;-58
2022/12/30 10:18:35;;;;;;;2.92;1.02;;;;;;;;;;5116242;28;20069;-58
2022/12/30 10:21:07;;;;;;;2.07;1.13;;;;;;;;;;5116410;28;20122;-58
2022/12/30 10:23:50;;;;;;;1.83;1.00;;;;;;;;;;5116084;28;20472;-57
2022/12/30 10:26:24;;;;;;;2.47;1.30;;;;;;;;;;5116248;28;20019;-57
2022/12/30 10:29:00;;;;;;;1.52;0.75;;;;;;;;;;5115899;28;20031;-58
2022/12/30 10:31:28;;;;;;;1.50;0.88;;;;;;;;;;5116250;28;20020;-58
2022/12/30 10:33:55;;;;;;;3.67;1.05;;;;;;;;;;5115674;28;20028;-58
2022/12/30 10:36:27;;;;;;;1.10;0.60;;;;;;;;;;5115372;28;20032;-58
2022/12/30 10:39:25;;;;;;;0.82;0.47;;;;;;;;;;5115516;28;20076;-58
2022/12/30 10:42:16;;;;;;;1.38;0.98;;;;;;;;;;5060193;28;20359;-58
2022/12/30 10:44:42;;;;;;;1.42;0.55;;;;;;;;;;5116485;28;20024;-57
2022/12/30 10:47:28;;;;;;;0.90;0.50;;;;;;;;;;5115617;28;20020;-58
2022/12/30 10:50:02;;;;;;;0.95;0.55;;;;;;;;;;5115485;28;20074;-58
2022/12/30 10:52:28;;;;;;;1.00;0.50;;;;;;;;;;5115772;28;20040;-58
2022/12/30 10:54:54;;;;;;;0.68;0.38;;;;;;;;;;5116036;28;20024;-58
2022/12/30 10:57:22;;;;;;;1.15;0.52;;;;;;;;;;5115615;28;20472;-58
2022/12/30 10:59:49;;;;;;;0.80;0.45;;;;;;;;;;5115493;28;20077;-57
2022/12/30 11:02:23;;;;;;;0.85;0.50;;;;;;;;;;5115222;28;20389;-58
2022/12/30 11:04:49;;;;;;;1.48;0.40;;;;;;;;;;5115480;28;20454;-58
2022/12/30 11:07:16;;;;;;;0.95;0.60;;;;;;;;;;5115734;28;20038;-58
2022/12/30 11:09:46;;;;;;;1.63;0.82;;;;;;;;;;5115392;28;20355;-55
2022/12/30 11:15:15;;;;;;;1.13;0.63;;;;;;;;;;5115133;28;20034;-55
2022/12/30 11:17:44;;;;;;;3.42;0.68;;;;;;;;;;5114938;28;20106;-53
2022/12/30 11:20:13;;;;;;;2.50;0.82;;;;;;;;;;5114938;28;20055;-55
2022/12/30 11:22:49;;;;;;;0.85;0.43;;;;;;;;;;5115220;28;20106;-54
2022/12/30 11:25:15;;;;;;;2.10;0.82;;;;;;;;;;5114903;28;20027;-56
2022/12/30 11:27:45;;;;;;;0.85;0.50;;;;;;;;;;5114754;28;20115;-56
2022/12/30 11:30:25;;;;;;;3.95;1.73;;;;;;;;;;5115042;28;20092;-56
2022/12/30 11:32:51;;;;;;;2.30;0.93;;;;;;;;;;5115123;28;20107;-54
2022/12/30 11:35:44;;;;;;;2.25;1.30;;;;;;;;;;5115210;28;20406;-54
2022/12/30 11:38:30;;;;;;;3.30;1.00;;;;;;;;;;5110360;28;20039;-56
2022/12/30 11:40:56;;;;;;;2.88;1.10;;;;;;;;;;5114554;28;20023;-56
2022/12/30 11:43:23;;;;;;;1.75;0.77;;;;;;;;;;5114520;28;20027;-55
2022/12/30 11:45:55;;;;;;;2.55;0.82;;;;;;;;;;5114805;28;20019;-58
2022/12/30 11:48:29;;;;;;;2.10;0.75;;;;;;;;;;5114933;28;20110;-58
2022/12/30 11:50:55;;;;;;;1.23;0.52;;;;;;;;;;5115055;28;20024;-56
2022/12/30 11:53:24;;;;;;;1.30;0.70;;;;;;;;;;5114291;28;20032;-58
2022/12/30 11:55:51;;;;;;;1.70;0.90;;;;;;;;;;5114347;28;20458;-54
2022/12/30 11:58:18;;;;;;;1.10;0.60;;;;;;;;;;5114411;28;20478;-53
2022/12/30 12:00:46;;;;;;;1.00;0.52;;;;;;;;;;5115103;28;20020;-53
2022/12/30 12:03:14;;;;;;;0.98;0.70;;;;;;;;;;5113628;28;20439;-58
2022/12/30 12:05:42;;;;;;;0.77;0.47;;;;;;;;;;5114709;28;20019;-58
2022/12/30 12:08:11;;;;;;;3.55;1.13;;;;;;;;;;5114986;28;20028;-58
2022/12/30 12:10:37;;;;;;;1.98;0.93;;;;;;;;;;5114404;28;20024;-58
2022/12/30 12:13:12;;;;;;;2.22;0.73;;;;;;;;;;5113869;28;20377;-55
2022/12/30 12:15:41;;;;;;;1.00;0.60;;;;;;;;;;5114746;28;20077;-56
2022/12/30 12:18:10;;;;;;;1.33;0.60;;;;;;;;;;5114623;28;20055;-55
2022/12/30 12:20:49;;;;;;;1.77;0.85;;;;;;;;;;5114377;28;20024;-56
2022/12/30 12:23:24;;;;;;;1.45;0.60;;;;;;;;;;5114504;28;20023;-56
2022/12/30 12:26:09;;;;;;;2.08;0.90;;;;;;;;;;5114473;28;20085;-57
2022/12/30 12:28:37;;;;;;;0.80;0.47;;;;;;;;;;5114396;28;20055;-56
2022/12/30 12:31:26;;;;;;;1.10;0.52;;;;;;;;;;5114028;28;20031;-57
2022/12/30 12:34:11;;;;;;;2.13;0.47;;;;;;;;;;5100520;28;20048;-54
2022/12/30 12:36:52;;;;;;;1.40;0.73;;;;;;;;;;5114251;28;20030;-55
2022/12/30 12:39:29;;;;;;;0.90;0.45;;;;;;;;;;5114605;28;20477;-56
2022/12/30 12:41:58;;;;;;;1.58;0.75;;;;;;;;;;5114469;28;20024;-56
2022/12/30 12:44:42;;;;;;;2.60;0.70;;;;;;;;;;5114314;28;20031;-54
2022/12/30 12:47:11;;;;;;;1.25;0.60;;;;;;;;;;5114203;28;20027;-56
2022/12/30 12:49:56;;;;;;;1.95;0.80;;;;;;;;;;5113896;28;20042;-57
2022/12/30 12:52:37;;;;;;;2.00;1.30;;;;;;;;;;5114175;28;20365;-57
2022/12/30 12:55:16;;;;;;;1.23;0.70;;;;;;;;;;5113923;28;20055;-56
2022/12/30 12:58:00;;;;;;;2.08;1.00;;;;;;;;;;5113413;28;20557;-55
2022/12/30 13:00:33;;;;;;;1.80;0.80;;;;;;;;;;5113471;28;20112;-56
2022/12/30 13:03:17;;;;;;;5.63;1.02;;;;;;;;;;5114146;28;20067;-57
2022/12/30 13:06:04;;;;;;;1.80;0.90;;;;;;;;;;5114054;28;20472;-57
2022/12/30 13:08:59;;;;;;;1.17;0.60;;;;;;;;;;5114030;28;20073;-57
2022/12/30 13:11:44;;;;;;;1.08;0.57;;;;;;;;;;5092180;28;20471;-57
2022/12/30 13:14:28;;;;;;;1.23;0.68;;;;;;;;;;5114444;28;20112;-56
2022/12/30 13:16:57;;;;;;;1.25;0.63;;;;;;;;;;5117465;28;20027;-56
2022/12/30 13:19:27;;;;;;;0.43;0.22;;;;;;;;;;5118165;28;20027;-57
2022/12/30 13:21:55;;;;;;;2.22;0.88;;;;;;;;;;5117309;28;20028;-56
2022/12/30 13:24:32;;;;;;;0.90;0.43;;;;;;;;;;5118059;28;20080;-57
2022/12/30 13:26:58;;;;;;;1.25;0.52;;;;;;;;;;5117235;28;20020;-56
2022/12/30 13:29:30;;;;;;;0.90;0.45;;;;;;;;;;5117403;28;20043;-55
2022/12/30 13:31:56;;;;;;;0.90;0.40;;;;;;;;;;5117110;28;20058;-55
2022/12/30 13:34:40;;;;;;;1.67;0.60;;;;;;;;;;5117352;28;20483;-56
2022/12/30 13:37:26;;;;;;;0.20;0.13;;;;;;;;;;5117037;28;20107;-56
2022/12/30 13:39:55;;;;;;;0.68;0.43;;;;;;;;;;5065397;28;20028;-56
2022/12/30 13:42:25;;;;;;;1.27;0.55;;;;;;;;;;5117167;28;20092;-53
2022/12/30 13:44:51;;;;;;;3.00;0.60;;;;;;;;;;5117465;28;20092;-57
2022/12/30 13:47:36;;;;;;;2.75;0.65;;;;;;;;;;5117116;28;20038;-56
2022/12/30 13:50:12;;;;;;;2.80;0.75;;;;;;;;;;5116746;28;20024;-56
2022/12/30 13:52:43;;;;;;;1.83;0.50;;;;;;;;;;5117133;28;20378;-57
2022/12/30 13:55:20;;;;;;;1.55;0.55;;;;;;;;;;5116719;28;20020;-56
2022/12/30 13:57:48;;;;;;;1.38;0.80;;;;;;;;;;5116305;28;20023;-56
2022/12/30 14:00:20;;;;;;;1.58;0.75;;;;;;;;;;5116373;28;20393;-55
2022/12/30 14:02:57;;;;;;;0.80;0.38;;;;;;;;;;5116188;28;20059;-56
2022/12/30 14:05:29;;;;;;;1.50;0.88;;;;;;;;;;5117028;28;20028;-56
2022/12/30 14:07:55;;;;;;;1.52;0.68;;;;;;;;;;5116716;28;20032;-52
2022/12/30 14:10:21;;;;;;;2.50;0.63;;;;;;;;;;5116191;28;20050;-56
2022/12/30 14:12:47;;;;;;;2.53;0.70;;;;;;;;;;5116519;28;20081;-55
2022/12/30 14:15:32;;;;;;;1.40;0.57;;;;;;;;;;5116517;28;20468;-55
2022/12/30 14:18:18;;;;;;;0.60;0.40;;;;;;;;;;5116020;28;20384;-57
2022/12/30 14:20:57;;;;;;;2.17;1.00;;;;;;;;;;5064609;28;20047;-55
2022/12/30 14:23:32;;;;;;;2.13;0.98;;;;;;;;;;5116550;28;20032;-55
2022/12/30 14:26:18;;;;;;;3.17;0.95;;;;;;;;;;5116215;28;20080;-56
2022/12/30 14:28:45;;;;;;;2.72;1.38;;;;;;;;;;5116413;28;20027;-55
2022/12/30 14:31:23;;;;;;;2.17;0.90;;;;;;;;;;5115912;28;20034;-54
2022/12/30 14:33:49;;;;;;;2.47;1.40;;;;;;;;;;5116117;28;20024;-55
2022/12/30 14:36:15;;;;;;;3.72;1.77;;;;;;;;;;5115772;28;20035;-56
2022/12/30 14:38:47;;;;;;;4.65;1.48;;;;;;;;;;5116363;28;20437;-55
2022/12/30 14:41:14;;;;;;;2.15;1.27;;;;;;;;;;5115629;28;20070;-55
2022/12/30 14:44:00;;;;;;;3.38;1.88;;;;;;;;;;5116103;28;20355;-56
2022/12/30 14:46:36;;;;;;;4.47;1.83;;;;;;;;;;5115565;28;20028;-52
2022/12/30 14:49:02;;;;;;;3.35;1.38;;;;;;;;;;5115430;28;20027;-55
2022/12/30 14:51:28;;;;;;;4.25;2.35;;;;;;;;;;5115746;28;20058;-57
2022/12/30 14:53:54;;;;;;;2.42;1.95;;;;;;;;;;5115674;28;20477;-57
2022/12/30 14:56:21;;;;;;;2.60;1.75;;;;;;;;;;5115177;28;20024;-56
2022/12/30 14:58:47;;;;;;;4.28;2.38;;;;;;;;;;5115246;28;20076;-58
2022/12/30 15:01:13;;;;;;;7.30;2.35;;;;;;;;;;5115004;28;20023;-57
2022/12/30 15:03:39;;;;;;;2.63;1.92;;;;;;;;;;5115758;28;20102;-59
2022/12/30 15:06:05;;;;;;;3.75;1.92;;;;;;;;;;5115831;28;20024;-58
2022/12/30 15:08:35;;;;;;;3.67;1.67;;;;;;;;;;5115171;28;20050;-58
2022/12/30 15:11:05;;;;;;;5.57;1.43;;;;;;;;;;5115085;28;20024;-58
2022/12/30 15:13:48;;;;;;;2.70;1.47;;;;;;;;;;5114956;28;20295;-59
2022/12/30 15:16:16;;;;;;;2.80;1.42;;;;;;;;;;5115066;28;20084;-59
2022/12/30 15:18:44;;;;;;;3.72;1.50;;;;;;;;;;5114999;28;20020;-59
2022/12/30 15:21:19;;;;;;;4.10;1.88;;;;;;;;;;5114810;28;20346;-56
2022/12/30 15:23:45;;;;;;;2.67;1.50;;;;;;;;;;5114918;28;20108;-57
2022/12/30 15:26:16;;;;;;;2.28;1.70;;;;;;;;;;5115403;28;20051;-57
2022/12/30 15:28:42;;;;;;;1.70;1.05;;;;;;;;;;5114712;28;20035;-56
2022/12/30 15:31:21;;;;;;;2.17;1.15;;;;;;;;;;5115195;28;20027;-57
2022/12/30 15:33:54;;;;;;;1.70;0.98;;;;;;;;;;5114609;28;20054;-57
2022/12/30 15:36:21;;;;;;;4.22;1.58;;;;;;;;;;5114407;28;20024;-57
2022/12/30 15:38:48;;;;;;;1.90;0.98;;;;;;;;;;5114228;28;20347;-57
2022/12/30 15:41:15;;;;;;;4.05;1.70;;;;;;;;;;5114855;28;20081;-56
2022/12/30 15:43:41;;;;;;;2.20;1.15;;;;;;;;;;5114770;28;20111;-56
2022/12/30 15:46:07;;;;;;;2.20;0.75;;;;;;;;;;5114576;28;20055;-56
2022/12/30 15:48:40;;;;;;;3.63;1.15;;;;;;;;;;5114414;28;20436;-56